createdAt,value
2017-09-13T00:04:40.067Z,15.50
2017-09-13T00:09:42.011Z,15.50
2017-09-13T00:14:43.979Z,15.52
2017-09-13T00:19:45.999Z,15.44
2017-09-13T00:24:48.267Z,15.41
2017-09-13T00:29:50.313Z,15.43
2017-09-13T00:34:52.317Z,15.41
2017-09-13T00:39:55.945Z,15.39
2017-09-13T00:44:58.018Z,15.52
2017-09-13T00:50:00.038Z,15.66
2017-09-13T00:55:02.191Z,15.73
2017-09-13T01:00:04.984Z,15.75
2017-09-13T01:05:06.971Z,15.78
2017-09-13T01:10:09.734Z,15.74
2017-09-13T01:15:11.687Z,15.80
2017-09-13T01:20:13.700Z,15.90
2017-09-13T01:25:15.678Z,15.90
2017-09-13T01:30:17.676Z,15.87
2017-09-13T01:35:19.639Z,15.90
2017-09-13T01:40:21.611Z,15.97
2017-09-13T01:45:23.586Z,15.96
2017-09-13T01:50:26.284Z,15.99
2017-09-13T01:55:28.267Z,15.92
2017-09-13T02:00:30.217Z,15.92
2017-09-13T02:05:32.183Z,15.91
2017-09-13T02:10:34.931Z,15.80
2017-09-13T02:15:36.894Z,15.85
2017-09-13T02:20:39.423Z,15.87
2017-09-13T02:25:41.394Z,15.97
2017-09-13T02:30:43.380Z,16.01
2017-09-13T02:35:45.508Z,16.03
2017-09-13T02:40:48.684Z,16.00
2017-09-13T02:45:51.722Z,15.91
2017-09-13T02:50:53.946Z,16.00
2017-09-13T02:55:56.346Z,15.89
2017-09-13T03:00:58.727Z,15.90
2017-09-13T03:06:01.648Z,15.89
2017-09-13T03:11:03.919Z,15.67
2017-09-13T03:16:05.910Z,15.53
2017-09-13T03:21:07.866Z,15.42
2017-09-13T03:26:10.379Z,15.43
2017-09-13T03:31:16.295Z,15.34
2017-09-13T03:36:19.345Z,15.30
2017-09-13T03:41:21.481Z,15.25
2017-09-13T03:46:23.443Z,15.24
2017-09-13T03:51:25.443Z,15.29
2017-09-13T03:56:27.449Z,15.19
2017-09-13T04:01:29.439Z,15.19
2017-09-13T04:06:31.491Z,15.10
2017-09-13T04:11:33.476Z,15.14
2017-09-13T04:16:36.176Z,15.16
2017-09-13T04:21:38.162Z,15.10
2017-09-13T04:26:40.140Z,15.05
2017-09-13T04:31:42.110Z,15.12
2017-09-13T04:36:44.059Z,15.16
2017-09-13T04:41:46.127Z,15.16
2017-09-13T04:46:48.115Z,15.09
2017-09-13T04:51:54.097Z,15.07
2017-09-13T04:56:56.076Z,15.00
2017-09-13T05:01:58.078Z,15.04
2017-09-13T05:07:00.082Z,15.07
2017-09-13T05:12:02.066Z,15.05
2017-09-13T05:17:04.779Z,15.06
2017-09-13T05:22:06.739Z,15.17
2017-09-13T05:27:08.710Z,15.13
2017-09-13T05:32:11.450Z,15.12
2017-09-13T05:37:13.480Z,15.17
2017-09-13T05:42:15.441Z,15.23
2017-09-13T05:47:17.416Z,15.34
2017-09-13T05:52:19.379Z,15.26
2017-09-13T05:57:21.343Z,15.36
2017-09-13T06:02:23.364Z,15.42
2017-09-13T06:07:25.377Z,15.45
2017-09-13T06:12:27.344Z,15.42
2017-09-13T06:17:29.315Z,15.41
2017-09-13T06:22:31.334Z,15.60
2017-09-13T06:27:33.393Z,15.59
2017-09-13T06:32:35.427Z,15.71
2017-09-13T06:37:37.451Z,15.89
2017-09-13T06:42:39.900Z,15.90
2017-09-13T06:47:41.881Z,16.10
2017-09-13T06:52:43.866Z,16.27
2017-09-13T06:57:45.851Z,16.30
2017-09-13T07:02:47.869Z,16.41
2017-09-13T07:07:49.862Z,16.69
2017-09-13T07:12:51.820Z,17.23
2017-09-13T07:17:53.802Z,17.55
2017-09-13T07:22:55.766Z,17.70
2017-09-13T07:27:58.466Z,17.56
2017-09-13T07:33:00.518Z,17.23
2017-09-13T07:38:02.557Z,17.17
2017-09-13T07:43:04.533Z,17.02
2017-09-13T07:48:06.515Z,17.03
2017-09-13T07:53:08.484Z,17.39
2017-09-13T07:58:10.507Z,17.47
2017-09-13T08:03:13.293Z,17.68
2017-09-13T08:08:15.349Z,17.89
2017-09-13T08:13:17.370Z,18.20
2017-09-13T08:18:19.451Z,18.49
2017-09-13T08:23:21.491Z,18.84
2017-09-13T08:28:24.188Z,19.34
2017-09-13T08:33:26.144Z,19.41
2017-09-13T08:38:28.134Z,19.27
2017-09-13T08:43:30.883Z,19.24
2017-09-13T08:48:32.864Z,19.19
2017-09-13T08:53:35.547Z,19.58
2017-09-13T08:58:37.616Z,19.49
2017-09-13T09:03:39.672Z,19.31
2017-09-13T09:08:41.780Z,19.32
2017-09-13T09:13:44.515Z,19.53
2017-09-13T09:18:46.528Z,19.34
2017-09-13T09:23:48.501Z,19.56
2017-09-13T09:28:50.569Z,20.04
2017-09-13T09:33:53.524Z,20.52
2017-09-13T09:38:55.552Z,20.48
2017-09-13T09:43:57.593Z,19.91
2017-09-13T09:48:59.647Z,20.01
2017-09-13T09:54:01.639Z,20.10
2017-09-13T09:59:04.356Z,20.05
2017-09-13T10:04:06.407Z,19.70
2017-09-13T10:09:08.397Z,19.33
2017-09-13T10:14:10.361Z,19.54
2017-09-13T10:19:13.093Z,20.00
2017-09-13T10:24:15.094Z,19.79
2017-09-13T10:29:17.503Z,19.63
2017-09-13T10:34:19.523Z,19.76
2017-09-13T10:39:21.616Z,19.83
2017-09-13T10:44:23.606Z,19.91
2017-09-13T10:49:25.703Z,20.18
2017-09-13T10:54:27.667Z,20.57
2017-09-13T10:59:29.660Z,20.72
2017-09-13T11:04:31.717Z,21.09
2017-09-13T11:09:33.715Z,21.10
2017-09-13T11:14:36.472Z,21.34
2017-09-13T11:19:38.468Z,21.17
2017-09-13T11:24:41.219Z,21.37
2017-09-13T11:29:43.253Z,21.28
2017-09-13T11:34:46.003Z,21.01
2017-09-13T11:39:48.002Z,20.35
2017-09-13T11:44:50.708Z,19.13
2017-09-13T11:49:52.664Z,17.93
2017-09-13T11:54:54.876Z,17.51
2017-09-13T11:59:57.845Z,17.74
2017-09-13T12:04:59.844Z,18.13
2017-09-13T12:10:01.852Z,18.49
2017-09-13T12:15:04.602Z,18.77
2017-09-13T12:20:07.365Z,19.00
2017-09-13T12:25:09.375Z,19.29
2017-09-13T12:30:11.364Z,19.53
2017-09-13T12:35:13.367Z,19.88
2017-09-13T12:40:16.239Z,20.20
2017-09-13T12:45:18.320Z,21.08
2017-09-13T12:50:20.332Z,21.47
2017-09-13T12:55:23.053Z,21.26
2017-09-13T13:00:25.189Z,21.24
2017-09-13T13:05:27.232Z,20.79
2017-09-13T13:10:29.242Z,20.97
2017-09-13T13:15:31.209Z,21.13
2017-09-13T13:20:33.444Z,20.64
2017-09-13T13:25:36.099Z,20.59
2017-09-13T13:30:38.929Z,20.87
2017-09-13T13:35:41.194Z,20.68
2017-09-13T13:40:43.150Z,20.55
2017-09-13T13:45:45.185Z,20.61
2017-09-13T13:50:47.197Z,20.60
2017-09-13T13:55:49.926Z,20.74
2017-09-13T14:00:51.946Z,20.87
2017-09-13T14:05:53.984Z,20.92
2017-09-13T14:10:55.965Z,20.73
2017-09-13T14:15:58.025Z,20.83
2017-09-13T14:21:00.051Z,20.70
2017-09-13T14:26:02.016Z,20.70
2017-09-13T14:31:03.991Z,20.82
2017-09-13T14:36:06.056Z,20.88
2017-09-13T14:41:08.141Z,20.78
2017-09-13T14:46:10.097Z,20.91
2017-09-13T14:51:12.169Z,20.96
2017-09-13T14:56:14.307Z,21.00
2017-09-13T15:01:16.330Z,21.18
2017-09-13T15:06:18.403Z,21.44
2017-09-13T15:11:20.412Z,21.53
2017-09-13T15:16:22.369Z,21.49
2017-09-13T15:21:25.187Z,21.20
2017-09-13T15:26:27.251Z,21.26
2017-09-13T15:31:30.012Z,21.20
2017-09-13T15:36:31.950Z,21.16
2017-09-13T15:41:34.140Z,21.00
2017-09-13T15:46:36.141Z,21.02
2017-09-13T15:51:38.104Z,21.00
2017-09-13T15:56:40.935Z,20.89
2017-09-13T16:01:42.934Z,20.89
2017-09-13T16:06:44.962Z,20.83
2017-09-13T16:11:47.042Z,20.86
2017-09-13T16:16:49.763Z,20.68
2017-09-13T16:21:51.843Z,20.58
2017-09-13T16:26:53.825Z,20.32
2017-09-13T16:31:56.033Z,20.23
2017-09-13T16:36:58.021Z,20.24
2017-09-13T16:42:00.060Z,20.08
2017-09-13T16:47:02.088Z,19.78
2017-09-13T16:52:04.174Z,19.54
2017-09-13T16:57:06.257Z,19.41
2017-09-13T17:02:08.243Z,19.24
2017-09-13T17:07:10.299Z,19.06
2017-09-13T17:12:13.040Z,19.05
2017-09-13T17:17:16.191Z,18.87
2017-09-13T17:22:18.222Z,18.75
2017-09-13T17:27:20.227Z,18.72
2017-09-13T17:32:22.184Z,18.67
2017-09-13T17:37:25.229Z,18.70
2017-09-13T17:42:27.363Z,18.46
2017-09-13T17:47:29.509Z,18.24
2017-09-13T17:52:31.487Z,18.23
2017-09-13T17:57:33.506Z,18.25
2017-09-13T18:02:35.560Z,18.08
2017-09-13T18:07:37.535Z,18.03
2017-09-13T18:12:39.544Z,17.99
2017-09-13T18:17:41.679Z,17.98
2017-09-13T18:22:43.718Z,17.99
2017-09-13T18:27:45.739Z,18.06
2017-09-13T18:32:48.595Z,18.11
2017-09-13T18:37:50.583Z,18.16
2017-09-13T18:42:52.523Z,18.16
2017-09-13T18:47:55.920Z,18.19
2017-09-13T18:52:58.227Z,18.25
2017-09-13T18:58:00.511Z,18.21
2017-09-13T19:03:02.520Z,18.30
2017-09-13T19:08:06.935Z,18.43
2017-09-13T19:13:08.930Z,18.43
2017-09-13T19:18:12.348Z,18.39
2017-09-13T19:23:15.148Z,18.37
2017-09-13T19:28:17.239Z,18.31
2017-09-13T19:33:19.324Z,18.19
2017-09-13T19:38:21.535Z,18.06
2017-09-13T19:43:23.547Z,17.83
2017-09-13T19:48:25.621Z,17.71
2017-09-13T19:53:27.679Z,17.67
2017-09-13T19:58:29.660Z,17.58
2017-09-13T20:03:31.700Z,17.41
2017-09-13T20:08:34.254Z,17.30
2017-09-13T20:13:36.287Z,17.24
2017-09-13T20:18:38.637Z,17.25
2017-09-13T20:23:41.023Z,17.16
2017-09-13T20:28:42.976Z,17.06
2017-09-13T20:33:45.034Z,16.91
2017-09-13T20:38:47.063Z,16.67
2017-09-13T20:43:49.035Z,16.80
2017-09-13T20:48:51.193Z,16.79
2017-09-13T20:53:53.176Z,16.62
2017-09-13T20:58:55.975Z,16.55
2017-09-13T21:03:57.935Z,16.39
2017-09-13T21:08:59.878Z,16.40
2017-09-13T21:14:01.864Z,16.33
2017-09-13T21:19:03.840Z,16.26
2017-09-13T21:24:06.540Z,16.20
2017-09-13T21:29:08.579Z,16.23
2017-09-13T21:34:11.288Z,16.24
2017-09-13T21:39:13.419Z,16.08
2017-09-13T21:44:15.387Z,16.14
2017-09-13T21:49:17.384Z,16.08
2017-09-13T21:54:19.421Z,16.10
2017-09-13T21:59:21.388Z,16.08
2017-09-13T22:04:23.422Z,16.05
2017-09-13T22:09:25.447Z,16.04
2017-09-13T22:14:28.342Z,16.02
2017-09-13T22:19:30.343Z,15.98
2017-09-13T22:24:32.345Z,15.96
2017-09-13T22:29:34.336Z,15.96
2017-09-13T22:34:36.357Z,15.93
2017-09-13T22:39:38.429Z,15.88
2017-09-13T22:44:40.710Z,15.86
2017-09-13T22:49:43.443Z,15.81
2017-09-13T22:54:45.529Z,15.78
2017-09-13T22:59:48.158Z,15.86
2017-09-13T23:04:50.805Z,15.86
2017-09-13T23:09:53.436Z,15.97
2017-09-13T23:14:55.807Z,15.98
2017-09-13T23:19:57.747Z,16.03
2017-09-13T23:25:00.590Z,16.07
2017-09-13T23:30:02.552Z,16.16
2017-09-13T23:35:05.550Z,16.29
2017-09-13T23:40:07.541Z,16.33
2017-09-13T23:45:09.520Z,16.30
2017-09-13T23:50:12.241Z,16.43
2017-09-13T23:55:14.212Z,16.41
